sensor_id;sensor_type;location;lat;lon;timestamp;pressure;altitude;pressure_sealevel;temperature;humidity
63306;BME280;50735;52.060;1.248;2024-02-21T00:00:33;101728.05;;;6.26;65.65
63306;BME280;50735;52.060;1.248;2024-02-21T00:03:05;101720.18;;;6.12;65.69
63306;BME280;50735;52.060;1.248;2024-02-21T00:05:37;101712.03;;;5.92;65.79
63306;BME280;50735;52.060;1.248;2024-02-21T00:08:09;101707.21;;;6.10;65.93
63306;BME280;50735;52.060;1.248;2024-02-21T00:10:41;101698.02;;;6.12;65.80
63306;BME280;50735;52.060;1.248;2024-02-21T00:13:12;101697.51;;;5.96;65.61
63306;BME280;50735;52.060;1.248;2024-02-21T00:15:44;101692.05;;;6.10;65.63
63306;BME280;50735;52.060;1.248;2024-02-21T00:18:16;101685.57;;;6.11;65.76
63306;BME280;50735;52.060;1.248;2024-02-21T00:20:48;101681.95;;;6.14;66.04
63306;BME280;50735;52.060;1.248;2024-02-21T00:23:20;101677.39;;;6.29;65.69
63306;BME280;50735;52.060;1.248;2024-02-21T00:25:52;101682.82;;;6.17;65.41
63306;BME280;50735;52.060;1.248;2024-02-21T00:28:23;101683.23;;;6.52;64.96
63306;BME280;50735;52.060;1.248;2024-02-21T00:30:55;101683.68;;;6.56;64.33
63306;BME280;50735;52.060;1.248;2024-02-21T00:33:27;101677.07;;;6.60;64.15
63306;BME280;50735;52.060;1.248;2024-02-21T00:35:59;101669.98;;;6.88;63.84
63306;BME280;50735;52.060;1.248;2024-02-21T00:38:31;101664.16;;;6.61;64.01
63306;BME280;50735;52.060;1.248;2024-02-21T00:41:03;101659.02;;;6.71;63.77
63306;BME280;50735;52.060;1.248;2024-02-21T00:43:35;101650.16;;;6.61;64.01
63306;BME280;50735;52.060;1.248;2024-02-21T00:46:08;101651.63;;;6.55;64.45
63306;BME280;50735;52.060;1.248;2024-02-21T00:48:39;101653.36;;;6.54;64.47
63306;BME280;50735;52.060;1.248;2024-02-21T00:51:11;101651.28;;;6.44;64.48
63306;BME280;50735;52.060;1.248;2024-02-21T00:53:43;101645.59;;;6.31;64.63
63306;BME280;50735;52.060;1.248;2024-02-21T00:56:16;101645.18;;;6.19;64.89
63306;BME280;50735;52.060;1.248;2024-02-21T00:58:48;101648.01;;;6.03;65.50
63306;BME280;50735;52.060;1.248;2024-02-21T01:01:21;101650.24;;;6.12;65.33
63306;BME280;50735;52.060;1.248;2024-02-21T01:03:53;101655.28;;;6.23;64.90
63306;BME280;50735;52.060;1.248;2024-02-21T01:06:25;101657.89;;;6.28;64.94
63306;BME280;50735;52.060;1.248;2024-02-21T01:08:57;101657.57;;;6.39;64.70
63306;BME280;50735;52.060;1.248;2024-02-21T01:11:29;101653.57;;;6.49;64.72
63306;BME280;50735;52.060;1.248;2024-02-21T01:14:01;101647.40;;;6.00;64.69
63306;BME280;50735;52.060;1.248;2024-02-21T01:16:33;101645.93;;;6.44;64.26
63306;BME280;50735;52.060;1.248;2024-02-21T01:19:05;101645.60;;;6.41;64.52
63306;BME280;50735;52.060;1.248;2024-02-21T01:21:36;101643.17;;;6.46;64.24
63306;BME280;50735;52.060;1.248;2024-02-21T01:24:08;101642.14;;;6.54;64.25
63306;BME280;50735;52.060;1.248;2024-02-21T01:26:41;101639.99;;;6.35;64.07
63306;BME280;50735;52.060;1.248;2024-02-21T01:29:13;101638.08;;;6.54;64.18
63306;BME280;50735;52.060;1.248;2024-02-21T01:31:45;101643.58;;;6.40;63.95
63306;BME280;50735;52.060;1.248;2024-02-21T01:34:17;101640.73;;;6.83;64.06
63306;BME280;50735;52.060;1.248;2024-02-21T01:36:48;101631.11;;;6.66;64.12
63306;BME280;50735;52.060;1.248;2024-02-21T01:39:20;101632.55;;;6.44;63.87
63306;BME280;50735;52.060;1.248;2024-02-21T01:41:52;101629.46;;;6.68;63.82
63306;BME280;50735;52.060;1.248;2024-02-21T01:44:24;101626.20;;;6.53;63.82
63306;BME280;50735;52.060;1.248;2024-02-21T01:46:56;101624.66;;;6.80;63.56
63306;BME280;50735;52.060;1.248;2024-02-21T01:49:27;101622.54;;;6.94;63.25
63306;BME280;50735;52.060;1.248;2024-02-21T01:51:59;101618.83;;;6.97;63.17
63306;BME280;50735;52.060;1.248;2024-02-21T01:54:32;101613.78;;;6.99;62.81
63306;BME280;50735;52.060;1.248;2024-02-21T01:57:04;101598.74;;;6.85;62.85
63306;BME280;50735;52.060;1.248;2024-02-21T01:59:36;101592.44;;;7.12;62.59
63306;BME280;50735;52.060;1.248;2024-02-21T02:02:08;101590.11;;;7.14;62.69
63306;BME280;50735;52.060;1.248;2024-02-21T02:04:40;101589.18;;;7.25;62.25
63306;BME280;50735;52.060;1.248;2024-02-21T02:07:11;101578.14;;;7.11;62.14
63306;BME280;50735;52.060;1.248;2024-02-21T02:09:43;101571.36;;;7.32;62.10
63306;BME280;50735;52.060;1.248;2024-02-21T02:12:15;101563.64;;;7.10;62.40
63306;BME280;50735;52.060;1.248;2024-02-21T02:14:57;101561.02;;;6.92;62.16
63306;BME280;50735;52.060;1.248;2024-02-21T02:17:30;101555.21;;;7.25;62.47
63306;BME280;50735;52.060;1.248;2024-02-21T02:20:03;101550.00;;;7.08;62.48
63306;BME280;50735;52.060;1.248;2024-02-21T02:22:37;101549.09;;;7.31;62.28
63306;BME280;50735;52.060;1.248;2024-02-21T02:25:10;101543.88;;;7.20;62.40
63306;BME280;50735;52.060;1.248;2024-02-21T02:27:43;101536.79;;;7.41;62.05
63306;BME280;50735;52.060;1.248;2024-02-21T02:30:16;101525.68;;;7.26;62.28
63306;BME280;50735;52.060;1.248;2024-02-21T02:32:48;101516.27;;;7.11;62.13
63306;BME280;50735;52.060;1.248;2024-02-21T02:35:20;101516.15;;;7.31;62.02
63306;BME280;50735;52.060;1.248;2024-02-21T02:37:52;101512.78;;;7.29;62.28
63306;BME280;50735;52.060;1.248;2024-02-21T02:40:23;101503.96;;;7.07;62.20
63306;BME280;50735;52.060;1.248;2024-02-21T02:42:55;101500.40;;;7.15;62.53
63306;BME280;50735;52.060;1.248;2024-02-21T02:45:27;101499.83;;;7.12;62.60
63306;BME280;50735;52.060;1.248;2024-02-21T02:47:59;101494.85;;;7.36;62.58
63306;BME280;50735;52.060;1.248;2024-02-21T02:50:31;101493.56;;;6.98;62.46
63306;BME280;50735;52.060;1.248;2024-02-21T02:53:03;101494.67;;;6.91;62.81
63306;BME280;50735;52.060;1.248;2024-02-21T02:55:35;101490.27;;;7.27;63.14
63306;BME280;50735;52.060;1.248;2024-02-21T02:58:07;101486.69;;;7.05;63.10
63306;BME280;50735;52.060;1.248;2024-02-21T03:00:39;101482.62;;;7.31;62.91
63306;BME280;50735;52.060;1.248;2024-02-21T03:03:11;101481.54;;;7.20;62.92
63306;BME280;50735;52.060;1.248;2024-02-21T03:05:43;101482.52;;;7.23;62.80
63306;BME280;50735;52.060;1.248;2024-02-21T03:08:14;101480.82;;;7.37;62.69
63306;BME280;50735;52.060;1.248;2024-02-21T03:10:46;101476.33;;;7.37;62.69
63306;BME280;50735;52.060;1.248;2024-02-21T03:13:18;101481.74;;;7.20;62.72
63306;BME280;50735;52.060;1.248;2024-02-21T03:15:50;101481.57;;;7.00;62.85
63306;BME280;50735;52.060;1.248;2024-02-21T03:18:22;101481.20;;;7.15;63.01
63306;BME280;50735;52.060;1.248;2024-02-21T03:20:54;101467.56;;;6.94;63.00
63306;BME280;50735;52.060;1.248;2024-02-21T03:23:26;101465.81;;;7.18;62.87
63306;BME280;50735;52.060;1.248;2024-02-21T03:25:57;101465.22;;;6.85;63.16
63306;BME280;50735;52.060;1.248;2024-02-21T03:28:29;101453.36;;;7.17;63.33
63306;BME280;50735;52.060;1.248;2024-02-21T03:31:00;101443.84;;;7.19;63.34
63306;BME280;50735;52.060;1.248;2024-02-21T03:33:33;101440.08;;;7.05;63.71
63306;BME280;50735;52.060;1.248;2024-02-21T03:36:05;101439.91;;;6.87;63.64
63306;BME280;50735;52.060;1.248;2024-02-21T03:38:37;101436.51;;;6.85;63.73
63306;BME280;50735;52.060;1.248;2024-02-21T03:41:08;101432.67;;;6.79;63.95
63306;BME280;50735;52.060;1.248;2024-02-21T03:43:40;101420.55;;;6.93;64.00
63306;BME280;50735;52.060;1.248;2024-02-21T03:46:12;101412.04;;;6.94;64.00
63306;BME280;50735;52.060;1.248;2024-02-21T03:48:44;101403.84;;;6.72;63.97
63306;BME280;50735;52.060;1.248;2024-02-21T03:51:17;101400.07;;;6.92;63.97
63306;BME280;50735;52.060;1.248;2024-02-21T03:53:49;101401.21;;;6.93;63.77
63306;BME280;50735;52.060;1.248;2024-02-21T03:56:20;101397.29;;;6.94;64.09
63306;BME280;50735;52.060;1.248;2024-02-21T03:58:53;101392.61;;;6.81;64.46
63306;BME280;50735;52.060;1.248;2024-02-21T04:01:25;101389.45;;;6.85;64.42
63306;BME280;50735;52.060;1.248;2024-02-21T04:03:57;101383.39;;;6.50;64.92
63306;BME280;50735;52.060;1.248;2024-02-21T04:06:28;101381.87;;;6.66;64.79
63306;BME280;50735;52.060;1.248;2024-02-21T04:09:00;101385.30;;;6.55;64.59
63306;BME280;50735;52.060;1.248;2024-02-21T04:11:32;101383.26;;;6.78;64.45
63306;BME280;50735;52.060;1.248;2024-02-21T04:14:04;101383.48;;;6.58;64.38
63306;BME280;50735;52.060;1.248;2024-02-21T04:16:35;101380.09;;;6.69;64.81
63306;BME280;50735;52.060;1.248;2024-02-21T04:19:07;101372.95;;;6.72;64.66
63306;BME280;50735;52.060;1.248;2024-02-21T04:21:39;101366.30;;;6.55;64.52
63306;BME280;50735;52.060;1.248;2024-02-21T04:24:11;101361.68;;;6.65;64.89
63306;BME280;50735;52.060;1.248;2024-02-21T04:26:42;101354.69;;;6.67;64.81
63306;BME280;50735;52.060;1.248;2024-02-21T04:29:14;101348.24;;;6.37;64.99
63306;BME280;50735;52.060;1.248;2024-02-21T04:31:46;101350.64;;;6.61;65.00
63306;BME280;50735;52.060;1.248;2024-02-21T04:34:18;101343.71;;;6.59;64.85
63306;BME280;50735;52.060;1.248;2024-02-21T04:36:50;101333.17;;;6.49;65.32
63306;BME280;50735;52.060;1.248;2024-02-21T04:39:21;101323.17;;;6.45;65.46
63306;BME280;50735;52.060;1.248;2024-02-21T04:41:53;101315.64;;;6.51;65.38
63306;BME280;50735;52.060;1.248;2024-02-21T04:44:25;101316.36;;;6.50;65.38
63306;BME280;50735;52.060;1.248;2024-02-21T04:46:57;101318.48;;;6.48;65.11
63306;BME280;50735;52.060;1.248;2024-02-21T04:49:28;101317.22;;;6.40;65.58
63306;BME280;50735;52.060;1.248;2024-02-21T04:52:00;101312.77;;;6.44;65.62
63306;BME280;50735;52.060;1.248;2024-02-21T04:54:32;101311.47;;;6.48;65.37
63306;BME280;50735;52.060;1.248;2024-02-21T04:57:04;101310.83;;;6.68;65.54
63306;BME280;50735;52.060;1.248;2024-02-21T04:59:36;101305.40;;;6.58;65.30
63306;BME280;50735;52.060;1.248;2024-02-21T05:02:08;101297.17;;;6.59;65.23
63306;BME280;50735;52.060;1.248;2024-02-21T05:04:39;101288.41;;;6.57;65.32
63306;BME280;50735;52.060;1.248;2024-02-21T05:07:11;101285.69;;;6.32;65.77
63306;BME280;50735;52.060;1.248;2024-02-21T05:09:43;101276.44;;;6.51;65.72
63306;BME280;50735;52.060;1.248;2024-02-21T05:12:15;101262.85;;;6.37;66.11
63306;BME280;50735;52.060;1.248;2024-02-21T05:14:47;101254.80;;;6.30;66.19
63306;BME280;50735;52.060;1.248;2024-02-21T05:17:19;101250.10;;;6.21;66.67
63306;BME280;50735;52.060;1.248;2024-02-21T05:19:51;101251.42;;;6.15;66.89
63306;BME280;50735;52.060;1.248;2024-02-21T05:22:23;101248.06;;;6.37;66.62
63306;BME280;50735;52.060;1.248;2024-02-21T05:24:54;101248.38;;;6.02;66.87
63306;BME280;50735;52.060;1.248;2024-02-21T05:27:26;101242.64;;;6.03;67.25
63306;BME280;50735;52.060;1.248;2024-02-21T05:29:58;101240.33;;;6.08;67.30
63306;BME280;50735;52.060;1.248;2024-02-21T05:32:30;101241.53;;;6.28;67.12
63306;BME280;50735;52.060;1.248;2024-02-21T05:35:02;101234.83;;;6.11;66.96
63306;BME280;50735;52.060;1.248;2024-02-21T05:37:34;101226.10;;;6.09;67.39
63306;BME280;50735;52.060;1.248;2024-02-21T05:40:07;101202.12;;;6.12;67.21
63306;BME280;50735;52.060;1.248;2024-02-21T05:42:39;101211.05;;;6.10;67.23
63306;BME280;50735;52.060;1.248;2024-02-21T05:45:10;101213.64;;;5.98;67.33
63306;BME280;50735;52.060;1.248;2024-02-21T05:47:42;101209.60;;;5.79;68.11
63306;BME280;50735;52.060;1.248;2024-02-21T05:50:14;101195.45;;;5.74;68.26
63306;BME280;50735;52.060;1.248;2024-02-21T05:52:46;101190.39;;;5.95;67.95
63306;BME280;50735;52.060;1.248;2024-02-21T05:55:18;101192.94;;;5.85;68.10
63306;BME280;50735;52.060;1.248;2024-02-21T05:57:53;101187.43;;;5.98;68.39
63306;BME280;50735;52.060;1.248;2024-02-21T06:00:25;101179.83;;;5.86;68.10
63306;BME280;50735;52.060;1.248;2024-02-21T06:02:57;101190.05;;;5.70;68.47
63306;BME280;50735;52.060;1.248;2024-02-21T06:05:29;101186.25;;;5.65;68.86
63306;BME280;50735;52.060;1.248;2024-02-21T06:08:01;101186.43;;;5.55;69.00
63306;BME280;50735;52.060;1.248;2024-02-21T06:10:33;101172.45;;;5.85;69.02
63306;BME280;50735;52.060;1.248;2024-02-21T06:13:05;101154.37;;;5.65;68.89
63306;BME280;50735;52.060;1.248;2024-02-21T06:15:37;101143.75;;;5.70;68.57
63306;BME280;50735;52.060;1.248;2024-02-21T06:18:08;101131.43;;;5.74;68.56
63306;BME280;50735;52.060;1.248;2024-02-21T06:20:40;101123.46;;;5.66;68.97
63306;BME280;50735;52.060;1.248;2024-02-21T06:23:12;101122.48;;;5.66;68.79
63306;BME280;50735;52.060;1.248;2024-02-21T06:25:44;101126.62;;;5.79;69.00
63306;BME280;50735;52.060;1.248;2024-02-21T06:28:16;101120.53;;;5.57;68.89
63306;BME280;50735;52.060;1.248;2024-02-21T06:30:48;101109.28;;;5.43;68.63
63306;BME280;50735;52.060;1.248;2024-02-21T06:33:20;101099.56;;;5.60;68.57
63306;BME280;50735;52.060;1.248;2024-02-21T06:35:51;101097.24;;;5.80;68.66
63306;BME280;50735;52.060;1.248;2024-02-21T06:38:23;101096.21;;;5.54;68.69
63306;BME280;50735;52.060;1.248;2024-02-21T06:40:55;101088.65;;;5.46;68.71
63306;BME280;50735;52.060;1.248;2024-02-21T06:43:27;101083.20;;;5.15;69.07
63306;BME280;50735;52.060;1.248;2024-02-21T06:45:59;101080.89;;;5.55;68.37
63306;BME280;50735;52.060;1.248;2024-02-21T06:48:30;101077.23;;;5.89;67.98
63306;BME280;50735;52.060;1.248;2024-02-21T06:51:03;101076.46;;;5.48;67.66
63306;BME280;50735;52.060;1.248;2024-02-21T06:53:35;101072.25;;;5.77;67.54
63306;BME280;50735;52.060;1.248;2024-02-21T06:56:07;101067.71;;;5.65;67.36
63306;BME280;50735;52.060;1.248;2024-02-21T06:58:39;101071.95;;;5.19;68.36
63306;BME280;50735;52.060;1.248;2024-02-21T07:01:11;101068.68;;;5.19;68.88
63306;BME280;50735;52.060;1.248;2024-02-21T07:03:43;101066.46;;;5.46;69.18
63306;BME280;50735;52.060;1.248;2024-02-21T07:06:14;101059.59;;;5.11;69.64
63306;BME280;50735;52.060;1.248;2024-02-21T07:08:46;101053.25;;;5.18;69.50
63306;BME280;50735;52.060;1.248;2024-02-21T07:11:18;101040.86;;;5.17;69.82
63306;BME280;50735;52.060;1.248;2024-02-21T07:13:51;101028.79;;;5.27;69.84
63306;BME280;50735;52.060;1.248;2024-02-21T07:16:24;101021.69;;;4.92;71.04
63306;BME280;50735;52.060;1.248;2024-02-21T07:18:55;101018.70;;;5.02;71.49
63306;BME280;50735;52.060;1.248;2024-02-21T07:21:27;101012.93;;;5.19;71.45
63306;BME280;50735;52.060;1.248;2024-02-21T07:23:59;101008.40;;;5.29;71.31
63306;BME280;50735;52.060;1.248;2024-02-21T07:26:31;101000.51;;;5.16;71.26
63306;BME280;50735;52.060;1.248;2024-02-21T07:29:03;101004.34;;;5.33;71.15
63306;BME280;50735;52.060;1.248;2024-02-21T07:31:40;100993.36;;;4.94;71.55
63306;BME280;50735;52.060;1.248;2024-02-21T07:34:12;100981.53;;;5.35;71.92
63306;BME280;50735;52.060;1.248;2024-02-21T07:36:44;100980.81;;;5.24;71.46
63306;BME280;50735;52.060;1.248;2024-02-21T07:39:16;100973.81;;;5.40;71.50
63306;BME280;50735;52.060;1.248;2024-02-21T07:41:48;100961.31;;;5.50;71.67
63306;BME280;50735;52.060;1.248;2024-02-21T07:44:19;100953.64;;;5.39;72.08
63306;BME280;50735;52.060;1.248;2024-02-21T07:46:51;100958.17;;;5.35;72.03
63306;BME280;50735;52.060;1.248;2024-02-21T07:49:23;100950.15;;;5.41;72.27
63306;BME280;50735;52.060;1.248;2024-02-21T07:51:54;100950.59;;;5.49;72.07
63306;BME280;50735;52.060;1.248;2024-02-21T07:54:26;100941.25;;;5.14;72.52
63306;BME280;50735;52.060;1.248;2024-02-21T07:56:58;100927.99;;;5.12;72.77
63306;BME280;50735;52.060;1.248;2024-02-21T07:59:30;100917.49;;;5.26;73.04
63306;BME280;50735;52.060;1.248;2024-02-21T08:02:02;100912.73;;;5.00;73.19
63306;BME280;50735;52.060;1.248;2024-02-21T08:04:34;100904.51;;;5.21;73.73
63306;BME280;50735;52.060;1.248;2024-02-21T08:07:05;100902.02;;;5.14;73.12
63306;BME280;50735;52.060;1.248;2024-02-21T08:09:39;100888.95;;;5.13;73.09
63306;BME280;50735;52.060;1.248;2024-02-21T08:12:11;100875.61;;;5.36;74.02
63306;BME280;50735;52.060;1.248;2024-02-21T08:14:43;100875.10;;;5.19;73.55
63306;BME280;50735;52.060;1.248;2024-02-21T08:17:15;100871.71;;;5.26;73.25
63306;BME280;50735;52.060;1.248;2024-02-21T08:19:47;100868.37;;;4.94;73.76
63306;BME280;50735;52.060;1.248;2024-02-21T08:22:19;100855.53;;;4.86;74.38
63306;BME280;50735;52.060;1.248;2024-02-21T08:24:50;100845.53;;;5.07;74.77
63306;BME280;50735;52.060;1.248;2024-02-21T08:27:22;100831.98;;;5.14;74.71
63306;BME280;50735;52.060;1.248;2024-02-21T08:29:54;100830.36;;;5.06;74.62
63306;BME280;50735;52.060;1.248;2024-02-21T08:32:26;100821.21;;;4.83;74.79
63306;BME280;50735;52.060;1.248;2024-02-21T08:34:58;100819.91;;;5.00;74.77
63306;BME280;50735;52.060;1.248;2024-02-21T08:37:29;100814.32;;;5.18;74.60
63306;BME280;50735;52.060;1.248;2024-02-21T08:40:01;100805.35;;;4.92;74.01
63306;BME280;50735;52.060;1.248;2024-02-21T08:42:33;100795.81;;;4.89;74.85
63306;BME280;50735;52.060;1.248;2024-02-21T08:45:06;100795.23;;;4.76;74.89
63306;BME280;50735;52.060;1.248;2024-02-21T08:47:39;100785.06;;;4.75;75.20
63306;BME280;50735;52.060;1.248;2024-02-21T08:50:11;100787.63;;;4.74;75.18
63306;BME280;50735;52.060;1.248;2024-02-21T08:52:43;100783.75;;;4.74;75.20
63306;BME280;50735;52.060;1.248;2024-02-21T08:55:15;100774.38;;;4.82;75.09
63306;BME280;50735;52.060;1.248;2024-02-21T08:57:47;100773.63;;;4.78;75.27
63306;BME280;50735;52.060;1.248;2024-02-21T09:00:19;100779.01;;;5.18;74.83
63306;BME280;50735;52.060;1.248;2024-02-21T09:02:52;100774.65;;;5.02;74.80
63306;BME280;50735;52.060;1.248;2024-02-21T09:05:24;100766.59;;;5.01;74.97
63306;BME280;50735;52.060;1.248;2024-02-21T09:07:56;100769.97;;;4.78;75.84
63306;BME280;50735;52.060;1.248;2024-02-21T09:10:28;100763.04;;;4.37;76.24
63306;BME280;50735;52.060;1.248;2024-02-21T09:13:00;100763.98;;;4.63;76.36
63306;BME280;50735;52.060;1.248;2024-02-21T09:15:32;100752.69;;;4.57;77.01
63306;BME280;50735;52.060;1.248;2024-02-21T09:18:04;100747.73;;;4.55;76.89
63306;BME280;50735;52.060;1.248;2024-02-21T09:20:36;100761.67;;;4.52;77.09
63306;BME280;50735;52.060;1.248;2024-02-21T09:23:07;100739.22;;;4.49;77.73
63306;BME280;50735;52.060;1.248;2024-02-21T09:25:39;100738.27;;;4.75;77.36
63306;BME280;50735;52.060;1.248;2024-02-21T09:28:11;100730.77;;;4.83;76.94
63306;BME280;50735;52.060;1.248;2024-02-21T09:30:42;100712.23;;;4.80;77.09
63306;BME280;50735;52.060;1.248;2024-02-21T09:33:14;100711.27;;;4.88;77.00
63306;BME280;50735;52.060;1.248;2024-02-21T09:35:46;100703.82;;;4.70;77.51
63306;BME280;50735;52.060;1.248;2024-02-21T09:38:18;100692.51;;;4.64;77.73
63306;BME280;50735;52.060;1.248;2024-02-21T09:40:55;100680.48;;;4.82;77.46
63306;BME280;50735;52.060;1.248;2024-02-21T09:43:31;100679.81;;;4.90;77.78
63306;BME280;50735;52.060;1.248;2024-02-21T09:46:05;100671.44;;;5.00;76.98
63306;BME280;50735;52.060;1.248;2024-02-21T09:48:51;100667.55;;;4.99;77.21
63306;BME280;50735;52.060;1.248;2024-02-21T09:51:29;100651.58;;;5.00;77.43
63306;BME280;50735;52.060;1.248;2024-02-21T09:54:03;100642.60;;;4.93;77.94
63306;BME280;50735;52.060;1.248;2024-02-21T09:56:34;100645.28;;;5.07;77.58
63306;BME280;50735;52.060;1.248;2024-02-21T09:59:07;100640.12;;;5.04;77.44
63306;BME280;50735;52.060;1.248;2024-02-21T10:01:39;100641.92;;;4.79;77.60
63306;BME280;50735;52.060;1.248;2024-02-21T10:04:11;100653.44;;;4.97;77.47
63306;BME280;50735;52.060;1.248;2024-02-21T10:06:43;100629.45;;;4.86;78.07
63306;BME280;50735;52.060;1.248;2024-02-21T10:09:23;100613.36;;;4.99;78.19
63306;BME280;50735;52.060;1.248;2024-02-21T10:11:56;100611.13;;;5.00;78.18
63306;BME280;50735;52.060;1.248;2024-02-21T10:14:39;100602.55;;;5.18;77.95
63306;BME280;50735;52.060;1.248;2024-02-21T10:17:16;100595.23;;;5.13;77.73
63306;BME280;50735;52.060;1.248;2024-02-21T10:19:48;100590.57;;;5.01;78.08
63306;BME280;50735;52.060;1.248;2024-02-21T10:22:20;100591.19;;;5.13;78.13
63306;BME280;50735;52.060;1.248;2024-02-21T10:24:52;100586.62;;;4.96;78.03
63306;BME280;50735;52.060;1.248;2024-02-21T10:27:24;100579.78;;;4.76;78.02
63306;BME280;50735;52.060;1.248;2024-02-21T10:29:56;100577.24;;;5.09;77.70
63306;BME280;50735;52.060;1.248;2024-02-21T10:32:27;100570.51;;;5.05;77.41
63306;BME280;50735;52.060;1.248;2024-02-21T10:35:01;100563.92;;;5.17;77.35
63306;BME280;50735;52.060;1.248;2024-02-21T10:37:33;100565.46;;;5.23;77.66
63306;BME280;50735;52.060;1.248;2024-02-21T10:40:06;100556.68;;;5.13;77.16
63306;BME280;50735;52.060;1.248;2024-02-21T10:42:39;100555.87;;;5.06;77.92
63306;BME280;50735;52.060;1.248;2024-02-21T10:45:12;100544.77;;;5.00;77.99
63306;BME280;50735;52.060;1.248;2024-02-21T10:47:47;100530.63;;;4.93;78.00
63306;BME280;50735;52.060;1.248;2024-02-21T10:50:25;100555.01;;;5.27;77.51
63306;BME280;50735;52.060;1.248;2024-02-21T10:53:07;100537.04;;;4.89;77.73
63306;BME280;50735;52.060;1.248;2024-02-21T10:55:46;100516.29;;;4.95;78.32
63306;BME280;50735;52.060;1.248;2024-02-21T10:58:21;100503.68;;;5.15;77.98
63306;BME280;50735;52.060;1.248;2024-02-21T11:00:54;100489.69;;;5.09;77.99
63306;BME280;50735;52.060;1.248;2024-02-21T11:03:26;100490.79;;;5.06;78.36
63306;BME280;50735;52.060;1.248;2024-02-21T11:05:58;100483.10;;;5.17;78.02
63306;BME280;50735;52.060;1.248;2024-02-21T11:08:30;100481.19;;;5.13;77.75
63306;BME280;50735;52.060;1.248;2024-02-21T11:11:04;100471.02;;;5.08;78.09
63306;BME280;50735;52.060;1.248;2024-02-21T11:13:37;100459.89;;;4.94;78.58
63306;BME280;50735;52.060;1.248;2024-02-21T11:16:11;100463.39;;;5.18;78.23
63306;BME280;50735;52.060;1.248;2024-02-21T11:18:43;100457.37;;;5.03;78.29
63306;BME280;50735;52.060;1.248;2024-02-21T11:21:15;100440.42;;;4.96;78.76
63306;BME280;50735;52.060;1.248;2024-02-21T11:23:55;100432.59;;;5.32;78.43
63306;BME280;50735;52.060;1.248;2024-02-21T11:26:28;100417.44;;;4.98;78.30
63306;BME280;50735;52.060;1.248;2024-02-21T11:29:02;100411.25;;;5.20;78.17
63306;BME280;50735;52.060;1.248;2024-02-21T11:31:42;100405.46;;;5.01;78.61
63306;BME280;50735;52.060;1.248;2024-02-21T11:34:17;100395.66;;;5.03;78.76
63306;BME280;50735;52.060;1.248;2024-02-21T11:36:51;100388.49;;;4.98;78.54
63306;BME280;50735;52.060;1.248;2024-02-21T11:39:25;100370.28;;;5.08;78.44
63306;BME280;50735;52.060;1.248;2024-02-21T11:42:01;100361.17;;;5.01;78.97
63306;BME280;50735;52.060;1.248;2024-02-21T11:44:34;100359.80;;;5.11;78.84
63306;BME280;50735;52.060;1.248;2024-02-21T11:47:06;100345.04;;;5.07;78.88
63306;BME280;50735;52.060;1.248;2024-02-21T11:49:44;100340.36;;;5.19;78.65
63306;BME280;50735;52.060;1.248;2024-02-21T11:52:17;100332.72;;;5.11;78.58
63306;BME280;50735;52.060;1.248;2024-02-21T11:54:49;100318.30;;;4.94;78.95
63306;BME280;50735;52.060;1.248;2024-02-21T11:57:21;100317.65;;;4.81;79.29
63306;BME280;50735;52.060;1.248;2024-02-21T11:59:53;100299.25;;;5.05;79.43
63306;BME280;50735;52.060;1.248;2024-02-21T12:02:26;100289.93;;;5.19;79.14
63306;BME280;50735;52.060;1.248;2024-02-21T12:04:58;100279.59;;;4.93;79.56
63306;BME280;50735;52.060;1.248;2024-02-21T12:07:30;100273.71;;;5.10;79.49
63306;BME280;50735;52.060;1.248;2024-02-21T12:10:02;100271.91;;;5.29;78.84
63306;BME280;50735;52.060;1.248;2024-02-21T12:12:34;100247.28;;;5.14;79.05
63306;BME280;50735;52.060;1.248;2024-02-21T12:15:06;100233.52;;;5.32;78.80
63306;BME280;50735;52.060;1.248;2024-02-21T12:17:39;100224.19;;;5.24;79.12
63306;BME280;50735;52.060;1.248;2024-02-21T12:20:12;100227.68;;;5.01;79.33
63306;BME280;50735;52.060;1.248;2024-02-21T12:22:44;100209.10;;;4.79;79.30
63306;BME280;50735;52.060;1.248;2024-02-21T12:25:16;100204.84;;;5.22;79.34
63306;BME280;50735;52.060;1.248;2024-02-21T12:27:49;100208.74;;;5.18;79.26
63306;BME280;50735;52.060;1.248;2024-02-21T12:30:21;100185.74;;;5.03;79.22
63306;BME280;50735;52.060;1.248;2024-02-21T12:32:52;100193.53;;;5.25;79.26
63306;BME280;50735;52.060;1.248;2024-02-21T12:35:24;100172.74;;;5.10;79.59
63306;BME280;50735;52.060;1.248;2024-02-21T12:37:56;100155.36;;;5.15;79.84
63306;BME280;50735;52.060;1.248;2024-02-21T12:40:28;100157.13;;;5.33;79.51
63306;BME280;50735;52.060;1.248;2024-02-21T12:43:00;100150.87;;;5.29;79.40
63306;BME280;50735;52.060;1.248;2024-02-21T12:45:31;100159.05;;;5.30;79.41
63306;BME280;50735;52.060;1.248;2024-02-21T12:48:04;100141.35;;;5.16;80.04
63306;BME280;50735;52.060;1.248;2024-02-21T12:50:36;100160.26;;;5.07;79.89
63306;BME280;50735;52.060;1.248;2024-02-21T12:53:08;100122.00;;;5.32;79.95
63306;BME280;50735;52.060;1.248;2024-02-21T12:55:39;100112.63;;;5.42;79.38
63306;BME280;50735;52.060;1.248;2024-02-21T12:58:11;100095.63;;;4.97;80.33
63306;BME280;50735;52.060;1.248;2024-02-21T13:00:43;100097.40;;;5.31;80.19
63306;BME280;50735;52.060;1.248;2024-02-21T13:03:15;100071.29;;;5.37;79.89
63306;BME280;50735;52.060;1.248;2024-02-21T13:05:46;100061.40;;;5.29;79.92
63306;BME280;50735;52.060;1.248;2024-02-21T13:08:18;100063.14;;;5.25;80.11
63306;BME280;50735;52.060;1.248;2024-02-21T13:10:50;100068.66;;;5.28;79.83
63306;BME280;50735;52.060;1.248;2024-02-21T13:13:22;100045.90;;;5.30;80.19
63306;BME280;50735;52.060;1.248;2024-02-21T13:15:53;100036.44;;;5.18;80.29
63306;BME280;50735;52.060;1.248;2024-02-21T13:18:26;100030.54;;;5.26;80.20
63306;BME280;50735;52.060;1.248;2024-02-21T13:20:58;100019.78;;;5.27;80.63
63306;BME280;50735;52.060;1.248;2024-02-21T13:23:29;100012.90;;;5.41;80.34
63306;BME280;50735;52.060;1.248;2024-02-21T13:26:01;100015.07;;;5.30;80.46